Time;durP1;ratioP1;P1;durP2;ratioP2;P2;SDS_P1;SDS_P2;PMS_P1;PMS_P2;Temp;Humidity;BMP_temperature;BMP_pressure;BME280_temperature;BME280_humidity;BME280_pressure;Samples;Min_cycle;Max_cycle;Signal;HPM_P1;HPM_P2
2023/01/06 01:07:26;;;;;;;44.88;33.85;;;12.80;91.50;;;;;;5073168;28;20125;-73
2023/01/06 01:09:52;;;;;;;49.08;34.92;;;12.90;91.50;;;;;;5075026;28;20037;-73
2023/01/06 01:12:18;;;;;;;45.75;34.15;;;12.90;91.40;;;;;;5056995;28;20066;-73
2023/01/06 01:14:48;;;;;;;43.72;35.13;;;12.90;91.40;;;;;;5074884;28;20448;-72
2023/01/06 01:17:21;;;;;;;44.20;34.17;;;12.90;91.50;;;;;;5074441;28;20514;-72
2023/01/06 01:19:48;;;;;;;46.17;34.92;;;12.90;91.50;;;;;;5074393;28;20051;-73
2023/01/06 01:22:14;;;;;;;44.67;34.30;;;12.80;91.40;;;;;;5074996;28;20071;-72
2023/01/06 01:24:40;;;;;;;45.17;34.78;;;12.80;91.50;;;;;;5074498;28;20036;-72
2023/01/06 01:27:06;;;;;;;44.45;34.35;;;12.80;91.50;;;;;;5056353;28;20132;-73
2023/01/06 01:29:32;;;;;;;45.13;34.53;;;12.80;91.50;;;;;;5074432;28;20035;-73
2023/01/06 01:31:58;;;;;;;41.55;33.25;;;12.80;91.50;;;;;;5074672;28;20032;-73
2023/01/06 01:34:24;;;;;;;47.85;36.05;;;12.80;91.50;;;;;;5056782;28;20029;-73
2023/01/06 01:36:51;;;;;;;48.20;33.92;;;12.80;91.60;;;;;;5074328;28;20035;-72
2023/01/06 01:39:20;;;;;;;46.25;35.28;;;12.80;91.50;;;;;;5074506;28;20060;-73
2023/01/06 01:41:46;;;;;;;46.58;34.70;;;12.80;91.50;;;;;;5074639;28;20033;-72
2023/01/06 01:44:46;;;;;;;40.92;33.15;;;12.80;91.60;;;;;;5056458;28;20052;-73
2023/01/06 01:47:15;;;;;;;42.85;32.80;;;12.80;91.50;;;;;;5074436;28;20097;-72
2023/01/06 01:49:43;;;;;;;46.58;34.20;;;12.70;91.60;;;;;;5074209;28;20147;-72
2023/01/06 01:52:09;;;;;;;42.72;34.05;;;12.60;91.90;;;;;;5056246;28;20043;-72
2023/01/06 01:54:37;;;;;;;39.75;32.47;;;12.60;91.70;;;;;;5074306;28;20036;-71
2023/01/06 01:57:10;;;;;;;41.90;32.58;;;12.60;91.70;;;;;;5056050;28;20094;-72
2023/01/06 01:59:39;;;;;;;44.42;33.00;;;12.50;91.70;;;;;;5073746;28;20044;-72
2023/01/06 02:02:05;;;;;;;44.20;30.95;;;12.50;91.70;;;;;;5055759;28;20086;-71
2023/01/06 02:04:35;;;;;;;40.35;31.80;;;12.40;91.70;;;;;;5056048;28;20044;-72
2023/01/06 02:07:01;;;;;;;41.95;33.25;;;12.40;91.70;;;;;;5073849;28;20025;-71
2023/01/06 02:09:52;;;;;;;41.88;32.03;;;12.40;91.90;;;;;;5033640;28;20057;-73
2023/01/06 02:12:18;;;;;;;41.88;33.45;;;12.30;91.90;;;;;;5034036;28;20362;-72
2023/01/06 02:14:43;;;;;;;42.25;31.50;;;12.30;92.00;;;;;;5033600;28;20038;-71
2023/01/06 02:17:24;;;;;;;38.75;31.00;;;12.30;92.10;;;;;;5032616;28;20478;-73
2023/01/06 02:20:21;;;;;;;44.10;32.72;;;12.20;92.10;;;;;;5033991;28;20460;-73
2023/01/06 02:23:22;;;;;;;42.70;32.30;;;12.20;92.00;;;;;;5034015;28;20060;-72
2023/01/06 02:26:21;;;;;;;41.67;33.63;;;12.20;92.00;;;;;;5001541;28;20060;-72
2023/01/06 02:28:52;;;;;;;39.10;31.20;;;12.10;92.00;;;;;;5033101;28;20037;-72
2023/01/06 02:31:49;;;;;;;41.95;32.78;;;12.10;92.10;;;;;;5033641;28;20037;-72
2023/01/06 02:34:50;;;;;;;44.58;33.47;;;12.10;92.00;;;;;;5033828;28;20113;-72
2023/01/06 02:37:36;;;;;;;43.55;32.72;;;12.00;92.10;;;;;;5033887;28;20033;-73
2023/01/06 02:40:44;;;;;;;39.83;31.88;;;12.00;92.40;;;;;;5033290;28;20083;-72
2023/01/06 02:43:37;;;;;;;42.30;32.85;;;11.90;92.10;;;;;;5005076;28;20037;-72
2023/01/06 02:46:08;;;;;;;41.65;32.92;;;11.90;92.60;;;;;;5032073;28;20057;-73
2023/01/06 02:49:00;;;;;;;41.63;34.15;;;11.90;92.20;;;;;;5032157;28;20412;-73
2023/01/06 02:51:32;;;;;;;48.80;33.35;;;11.90;92.30;;;;;;5033331;28;20393;-72
2023/01/06 02:54:19;;;;;;;43.08;31.48;;;11.90;92.30;;;;;;5031674;28;20113;-72
2023/01/06 02:56:53;;;;;;;42.40;33.88;;;11.90;92.30;;;;;;5033170;28;20033;-72
2023/01/06 02:59:32;;;;;;;42.38;31.77;;;11.80;92.60;;;;;;5032707;28;20087;-72
2023/01/06 03:02:00;;;;;;;42.83;32.17;;;11.80;92.30;;;;;;5032735;28;20037;-72
2023/01/06 03:04:32;;;;;;;42.20;33.45;;;11.80;92.70;;;;;;5032801;28;20038;-72
2023/01/06 03:07:01;;;;;;;43.88;33.13;;;11.80;92.70;;;;;;5031735;28;20026;-72
2023/01/06 03:09:32;;;;;;;46.40;32.30;;;11.80;92.70;;;;;;5031389;28;20049;-75
2023/01/06 03:12:01;;;;;;;43.67;32.72;;;11.70;92.70;;;;;;5032856;28;20068;-72
2023/01/06 03:14:32;;;;;;;42.95;33.13;;;11.70;92.70;;;;;;5034316;28;20051;-72
2023/01/06 03:16:59;;;;;;;41.28;33.65;;;11.70;92.80;;;;;;5052784;28;20037;-73
2023/01/06 03:19:25;;;;;;;43.15;32.65;;;11.70;92.70;;;;;;5052815;28;20041;-72
2023/01/06 03:21:51;;;;;;;39.33;31.50;;;11.70;92.70;;;;;;5051575;28;20075;-72
2023/01/06 03:24:17;;;;;;;42.33;33.65;;;11.60;92.70;;;;;;5051385;28;20496;-72
2023/01/06 03:26:45;;;;;;;45.13;33.33;;;11.60;92.80;;;;;;5052376;28;20053;-72
2023/01/06 03:29:13;;;;;;;39.88;32.10;;;11.60;92.90;;;;;;5052232;28;20044;-72
2023/01/06 03:32:14;;;;;;;39.40;32.55;;;11.60;93.00;;;;;;5052521;28;20017;-73
2023/01/06 03:35:10;;;;;;;39.70;32.03;;;11.60;92.90;;;;;;4990983;28;20466;-72
2023/01/06 03:37:52;;;;;;;39.80;30.95;;;11.60;92.50;;;;;;5051020;28;20032;-73
2023/01/06 03:40:39;;;;;;;40.47;31.13;;;11.60;92.40;;;;;;5050548;28;20131;-72
2023/01/06 03:43:20;;;;;;;36.88;30.05;;;11.70;93.40;;;;;;5052050;28;20062;-72
2023/01/06 03:46:07;;;;;;;37.22;29.88;;;11.70;92.30;;;;;;5051094;28;20044;-71
2023/01/06 03:48:39;;;;;;;38.92;30.85;;;11.70;92.50;;;;;;5050842;28;20044;-72
2023/01/06 03:51:36;;;;;;;41.33;29.20;;;11.70;92.40;;;;;;5052142;28;20037;-70
2023/01/06 03:54:12;;;;;;;38.33;28.52;;;11.70;92.40;;;;;;5052068;28;20033;-71
2023/01/06 03:56:44;;;;;;;36.33;28.38;;;11.80;92.40;;;;;;5052295;28;20396;-72
2023/01/06 03:59:15;;;;;;;37.85;28.65;;;11.80;92.40;;;;;;5051941;28;20044;-72
2023/01/06 04:01:42;;;;;;;35.85;28.10;;;11.90;92.80;;;;;;5051868;28;20104;-73
2023/01/06 04:04:09;;;;;;;43.40;27.50;;;11.90;92.60;;;;;;5050598;28;20037;-71
2023/01/06 04:06:34;;;;;;;34.90;27.52;;;11.90;92.70;;;;;;5052194;28;20076;-72
2023/01/06 04:09:00;;;;;;;37.33;27.13;;;11.90;92.50;;;;;;5065877;28;20526;-73
2023/01/06 04:14:10;;;;;;;36.17;26.73;;;11.90;92.40;;;;;;5071846;28;20046;-71
2023/01/06 04:16:36;;;;;;;34.05;26.77;;;11.90;92.60;;;;;;5071974;28;20028;-72
2023/01/06 04:19:02;;;;;;;33.45;25.60;;;11.90;92.40;;;;;;5070482;28;20040;-72
2023/01/06 04:21:28;;;;;;;32.55;26.63;;;11.90;92.40;;;;;;5072155;28;20032;-72
2023/01/06 04:23:53;;;;;;;33.25;25.65;;;11.90;92.30;;;;;;5070096;28;20032;-72
2023/01/06 04:26:19;;;;;;;31.60;25.13;;;11.80;92.10;;;;;;5070319;28;20037;-72
2023/01/06 04:28:45;;;;;;;29.67;24.10;;;11.80;92.20;;;;;;5070463;28;20120;-73
2023/01/06 04:31:11;;;;;;;30.33;24.00;;;11.90;92.30;;;;;;5070779;28;20028;-71
2023/01/06 04:33:36;;;;;;;31.10;23.88;;;11.80;92.20;;;;;;5072040;28;20118;-71
2023/01/06 04:36:02;;;;;;;29.63;24.48;;;11.80;92.20;;;;;;5070321;28;20039;-71
2023/01/06 04:38:28;;;;;;;29.92;23.27;;;11.90;92.20;;;;;;5070522;28;20123;-71
2023/01/06 04:40:55;;;;;;;28.05;23.33;;;11.90;92.20;;;;;;5071900;28;20551;-71
2023/01/06 04:43:20;;;;;;;29.40;23.02;;;11.80;92.20;;;;;;5075149;28;20561;-72
2023/01/06 04:45:46;;;;;;;28.83;22.35;;;11.90;92.20;;;;;;5073897;28;20044;-72
2023/01/06 04:48:12;;;;;;;27.73;21.80;;;11.90;92.10;;;;;;5073722;28;20050;-73
2023/01/06 04:50:38;;;;;;;27.70;22.13;;;12.00;92.20;;;;;;5075246;28;20041;-72
2023/01/06 04:53:05;;;;;;;30.33;22.65;;;11.90;91.90;;;;;;5075289;28;20056;-71
2023/01/06 04:55:31;;;;;;;32.60;22.73;;;11.90;92.00;;;;;;5074035;28;20063;-72
2023/01/06 04:57:57;;;;;;;28.50;22.88;;;12.00;92.10;;;;;;5075093;28;20449;-72
2023/01/06 05:00:24;;;;;;;25.35;21.00;;;12.00;92.00;;;;;;5074082;28;20043;-72
2023/01/06 05:02:50;;;;;;;26.08;20.88;;;12.00;91.70;;;;;;5073855;28;20449;-71
2023/01/06 05:05:16;;;;;;;27.90;22.70;;;12.00;91.80;;;;;;5075110;28;20180;-72
2023/01/06 05:07:41;;;;;;;29.02;21.75;;;12.00;91.80;;;;;;5075930;28;20044;-72
2023/01/06 05:10:09;;;;;;;28.27;21.90;;;12.00;91.90;;;;;;5095088;28;20127;-73
2023/01/06 05:12:35;;;;;;;26.38;21.65;;;12.00;91.90;;;;;;5076937;28;20037;-72
2023/01/06 05:15:01;;;;;;;26.65;20.73;;;12.00;91.80;;;;;;5076909;28;20065;-71
2023/01/06 05:17:27;;;;;;;27.42;21.70;;;12.00;91.90;;;;;;5094861;28;20104;-72
2023/01/06 05:19:53;;;;;;;28.65;21.00;;;12.00;91.70;;;;;;5076972;28;20534;-71
2023/01/06 05:22:19;;;;;;;29.05;21.42;;;12.00;91.80;;;;;;5094941;28;20024;-72
2023/01/06 05:24:44;;;;;;;31.58;22.25;;;12.00;91.70;;;;;;5094829;28;20115;-71
2023/01/06 05:27:10;;;;;;;29.92;21.75;;;12.00;91.80;;;;;;5094595;28;20463;-72
2023/01/06 05:29:36;;;;;;;26.65;21.50;;;12.00;91.70;;;;;;5094639;28;20032;-72
2023/01/06 05:32:03;;;;;;;24.20;20.60;;;12.10;91.80;;;;;;5068247;28;20559;-72
2023/01/06 05:34:29;;;;;;;26.95;21.67;;;12.00;91.70;;;;;;5039790;28;20151;-74
2023/01/06 05:36:55;;;;;;;26.92;20.98;;;12.00;91.60;;;;;;5036870;28;20068;-73
2023/01/06 05:39:21;;;;;;;28.05;21.45;;;12.00;91.80;;;;;;5036636;28;20044;-73
2023/01/06 05:41:46;;;;;;;27.25;21.05;;;12.00;91.70;;;;;;5036635;28;20110;-71
2023/01/06 05:44:12;;;;;;;31.05;20.70;;;12.00;91.70;;;;;;5036278;28;20048;-73
2023/01/06 05:46:38;;;;;;;24.58;20.40;;;12.10;91.70;;;;;;5054225;28;20029;-72
2023/01/06 05:49:04;;;;;;;24.13;20.17;;;12.10;91.70;;;;;;5054020;28;20032;-72
2023/01/06 05:51:29;;;;;;;26.58;20.55;;;12.10;91.70;;;;;;5053934;28;20473;-71
2023/01/06 05:53:55;;;;;;;26.77;22.00;;;12.00;91.50;;;;;;5053972;28;20104;-72
2023/01/06 05:56:22;;;;;;;26.02;21.08;;;12.10;91.70;;;;;;5035998;28;20496;-71
2023/01/06 05:58:49;;;;;;;28.90;21.83;;;12.10;91.70;;;;;;5054039;28;20048;-72
2023/01/06 06:01:23;;;;;;;23.77;19.13;;;12.10;91.70;;;;;;5053976;28;20481;-72
2023/01/06 06:03:50;;;;;;;25.67;21.25;;;12.10;91.60;;;;;;5036099;28;20033;-71
2023/01/06 06:06:16;;;;;;;25.10;20.17;;;12.10;91.70;;;;;;5035861;28;20492;-72
2023/01/06 06:08:42;;;;;;;24.23;20.02;;;12.10;91.70;;;;;;5053486;28;20076;-71
2023/01/06 06:11:10;;;;;;;27.73;20.75;;;12.10;91.50;;;;;;5053763;28;20072;-71
2023/01/06 06:13:36;;;;;;;25.08;20.10;;;12.20;91.50;;;;;;5035781;28;20123;-71
2023/01/06 06:16:07;;;;;;;26.60;19.92;;;12.20;91.40;;;;;;5035396;28;20067;-72
2023/01/06 06:18:35;;;;;;;24.45;19.77;;;12.20;91.50;;;;;;5035560;28;20504;-71
2023/01/06 06:21:04;;;;;;;27.90;20.33;;;12.20;91.40;;;;;;5035621;28;20040;-71
2023/01/06 06:23:30;;;;;;;37.20;21.30;;;12.30;91.40;;;;;;5035396;28;20088;-72
2023/01/06 06:25:56;;;;;;;24.77;19.23;;;12.30;91.50;;;;;;5053250;28;20037;-72
2023/01/06 06:28:23;;;;;;;27.75;19.38;;;12.30;91.40;;;;;;5035291;28;20060;-71
2023/01/06 06:30:48;;;;;;;27.48;19.83;;;12.30;91.30;;;;;;5035391;28;20048;-72
2023/01/06 06:33:14;;;;;;;23.80;20.45;;;12.20;91.20;;;;;;5053089;28;20036;-72
2023/01/06 06:35:40;;;;;;;29.98;19.55;;;12.20;91.30;;;;;;5035425;28;20033;-71
2023/01/06 06:38:05;;;;;;;29.08;20.13;;;12.20;91.30;;;;;;5052919;28;20040;-72
2023/01/06 06:40:31;;;;;;;27.80;20.45;;;12.20;91.30;;;;;;5052783;28;20037;-72
2023/01/06 06:42:57;;;;;;;24.70;20.05;;;12.20;91.20;;;;;;5052785;28;20041;-72
2023/01/06 06:45:23;;;;;;;23.83;19.65;;;12.20;91.40;;;;;;5052613;28;20396;-72
2023/01/06 06:47:53;;;;;;;24.77;20.05;;;12.30;91.30;;;;;;5052897;28;20121;-72
2023/01/06 06:50:18;;;;;;;27.25;20.83;;;12.30;91.40;;;;;;5034874;28;20029;-71
2023/01/06 06:52:44;;;;;;;26.63;19.48;;;12.30;91.20;;;;;;5052531;28;20067;-72
2023/01/06 06:55:10;;;;;;;23.75;18.70;;;12.30;91.30;;;;;;5052891;28;20091;-71
2023/01/06 06:57:35;;;;;;;25.13;20.35;;;12.30;91.30;;;;;;5052778;28;20033;-72
2023/01/06 07:00:02;;;;;;;25.50;19.75;;;12.40;91.20;;;;;;5052585;28;20489;-71
2023/01/06 07:02:28;;;;;;;26.80;20.50;;;12.40;91.20;;;;;;5034353;28;20030;-71
2023/01/06 07:04:53;;;;;;;26.73;20.13;;;12.50;91.20;;;;;;5033797;28;20052;-71
2023/01/06 07:07:19;;;;;;;27.77;20.88;;;12.50;91.10;;;;;;5034268;28;20067;-72
2023/01/06 07:09:45;;;;;;;23.67;20.15;;;12.50;91.10;;;;;;5034495;28;20041;-72
2023/01/06 07:12:10;;;;;;;24.27;19.25;;;12.40;91.10;;;;;;5052310;28;20033;-71
2023/01/06 07:14:36;;;;;;;33.63;20.52;;;12.40;91.10;;;;;;5034464;28;20488;-73
2023/01/06 07:17:02;;;;;;;23.75;19.23;;;12.40;91.00;;;;;;5052174;28;20037;-73
2023/01/06 07:19:27;;;;;;;25.85;19.10;;;12.40;90.90;;;;;;5034241;28;20037;-72
2023/01/06 07:21:53;;;;;;;28.52;21.40;;;12.40;91.10;;;;;;5034320;28;20120;-73
2023/01/06 07:24:19;;;;;;;26.38;20.15;;;12.40;91.10;;;;;;5052167;28;20041;-72
2023/01/06 07:26:44;;;;;;;25.98;20.88;;;12.40;91.10;;;;;;5051783;28;20067;-71
2023/01/06 07:29:10;;;;;;;26.00;20.92;;;12.50;90.90;;;;;;5033962;28;20071;-72
2023/01/06 07:31:36;;;;;;;26.52;19.65;;;12.50;91.00;;;;;;5051772;28;20112;-72
2023/01/06 07:34:01;;;;;;;27.08;20.30;;;12.60;91.00;;;;;;5033986;28;20065;-71
2023/01/06 07:36:27;;;;;;;27.00;20.38;;;12.60;91.00;;;;;;5051489;28;20170;-73
2023/01/06 07:38:53;;;;;;;23.38;18.83;;;12.70;91.00;;;;;;5033742;28;20052;-72
2023/01/06 07:41:18;;;;;;;30.90;19.85;;;12.70;90.90;;;;;;5051574;28;20033;-72
2023/01/06 07:43:44;;;;;;;29.35;20.20;;;12.70;90.90;;;;;;5051770;28;20488;-72
2023/01/06 07:46:10;;;;;;;28.15;20.55;;;12.70;90.80;;;;;;5033913;28;20040;-71
2023/01/06 07:48:36;;;;;;;31.48;25.45;;;12.70;90.80;;;;;;5033686;28;20048;-72
2023/01/06 07:51:02;;;;;;;31.05;24.50;;;12.80;90.70;;;;;;5033672;28;20511;-72
2023/01/06 07:53:28;;;;;;;25.70;21.13;;;12.80;90.90;;;;;;5033417;28;20036;-73
2023/01/06 07:55:54;;;;;;;26.02;19.80;;;12.80;90.70;;;;;;5033806;28;20041;-73
2023/01/06 07:58:22;;;;;;;26.80;21.33;;;12.90;90.70;;;;;;5052785;28;20040;-73
2023/01/06 08:00:48;;;;;;;26.45;19.60;;;12.90;90.80;;;;;;5049555;28;20044;-73
2023/01/06 08:03:14;;;;;;;25.10;19.48;;;12.80;90.60;;;;;;5053538;28;20036;-73
2023/01/06 08:05:41;;;;;;;27.42;21.13;;;12.80;90.70;;;;;;5071513;28;20033;-72
2023/01/06 08:08:07;;;;;;;25.02;19.55;;;12.90;90.70;;;;;;5053637;28;20131;-72
2023/01/06 08:10:33;;;;;;;28.23;20.70;;;12.90;90.60;;;;;;5067910;28;20137;-73
2023/01/06 08:12:59;;;;;;;24.20;18.73;;;12.90;90.60;;;;;;5061326;28;20097;-73
2023/01/06 08:15:25;;;;;;;28.52;19.95;;;12.90;90.40;;;;;;5054166;28;20064;-75
2023/01/06 08:17:54;;;;;;;24.30;19.02;;;12.90;90.60;;;;;;5057679;28;20037;-76
2023/01/06 08:20:20;;;;;;;26.40;19.35;;;12.90;90.50;;;;;;5074393;28;20131;-77
2023/01/06 08:22:46;;;;;;;26.13;18.40;;;13.00;90.60;;;;;;5057519;28;20029;-76
2023/01/06 08:25:11;;;;;;;24.75;19.05;;;13.00;90.60;;;;;;5075761;28;20047;-74
2023/01/06 08:27:37;;;;;;;23.73;18.10;;;13.10;90.50;;;;;;5067185;28;20123;-77
2023/01/06 08:30:03;;;;;;;23.92;17.17;;;13.10;90.40;;;;;;5054646;28;20033;-77
2023/01/06 08:32:29;;;;;;;24.80;18.40;;;13.10;90.30;;;;;;5055244;28;20079;-76
2023/01/06 08:34:55;;;;;;;23.98;18.13;;;13.10;90.20;;;;;;5057902;28;20045;-77
2023/01/06 08:37:20;;;;;;;22.20;17.48;;;13.20;90.20;;;;;;5055072;28;20103;-75
2023/01/06 08:39:46;;;;;;;27.35;19.00;;;13.20;90.10;;;;;;5037459;28;20045;-74
2023/01/06 08:42:12;;;;;;;25.70;18.77;;;13.20;90.10;;;;;;5054308;28;20593;-74
2023/01/06 08:44:38;;;;;;;21.88;17.80;;;13.30;90.10;;;;;;5057247;28;20483;-76
2023/01/06 08:47:04;;;;;;;24.35;19.08;;;13.40;90.10;;;;;;5075118;28;20044;-73
2023/01/06 08:49:30;;;;;;;24.67;19.30;;;13.40;90.00;;;;;;5075081;28;20476;-77
2023/01/06 08:51:55;;;;;;;22.50;18.45;;;13.50;90.00;;;;;;5056694;28;20036;-75
2023/01/06 08:54:21;;;;;;;24.90;19.92;;;13.50;89.90;;;;;;5057886;28;20431;-73
2023/01/06 08:56:47;;;;;;;25.92;20.85;;;13.60;90.00;;;;;;5059446;28;20140;-74
2023/01/06 08:59:15;;;;;;;27.20;20.13;;;13.60;89.90;;;;;;5054625;28;20123;-74
2023/01/06 09:01:42;;;;;;;25.60;19.30;;;13.70;90.20;;;;;;5057581;28;20037;-75
2023/01/06 09:04:09;;;;;;;24.17;19.23;;;13.70;89.70;;;;;;5053075;28;20029;-73
2023/01/06 09:06:35;;;;;;;26.42;19.63;;;13.70;89.60;;;;;;5040147;28;20029;-73
2023/01/06 09:09:02;;;;;;;30.92;20.30;;;13.80;89.60;;;;;;5048270;28;20134;-72
2023/01/06 09:11:28;;;;;;;24.63;17.92;;;13.80;89.20;;;;;;5056287;28;20459;-72
2023/01/06 09:13:54;;;;;;;24.55;18.15;;;13.90;89.30;;;;;;5054944;28;20040;-71
2023/01/06 09:16:21;;;;;;;25.95;18.75;;;13.90;88.90;;;;;;5070063;28;20028;-73
2023/01/06 09:18:48;;;;;;;25.20;17.63;;;13.90;88.90;;;;;;5056296;28;20465;-74
2023/01/06 09:21:19;;;;;;;21.60;17.40;;;13.90;88.60;;;;;;5074611;28;20032;-73
2023/01/06 09:23:45;;;;;;;21.67;17.27;;;13.90;88.50;;;;;;5056162;28;20032;-74
2023/01/06 09:26:14;;;;;;;24.27;19.27;;;13.90;88.70;;;;;;5073650;28;20373;-74
2023/01/06 09:28:40;;;;;;;23.73;18.08;;;14.00;88.60;;;;;;5070864;28;20170;-72
2023/01/06 09:31:06;;;;;;;23.20;18.02;;;14.10;88.50;;;;;;5070555;28;20139;-71
2023/01/06 09:33:32;;;;;;;20.67;17.08;;;14.10;88.30;;;;;;5067118;28;20067;-73
2023/01/06 09:35:58;;;;;;;24.02;18.13;;;14.20;88.20;;;;;;5066876;28;20459;-75
2023/01/06 09:38:25;;;;;;;22.73;18.20;;;14.20;88.00;;;;;;5066226;28;20044;-73
2023/01/06 09:41:32;;;;;;;23.42;18.02;;;14.30;88.10;;;;;;5062618;28;20044;-75
2023/01/06 09:44:14;;;;;;;23.95;18.40;;;14.20;87.30;;;;;;5030636;28;20040;-74
2023/01/06 09:46:43;;;;;;;24.02;19.25;;;14.20;87.40;;;;;;5072628;28;20131;-74
2023/01/06 09:49:21;;;;;;;25.00;20.27;;;14.20;88.10;;;;;;5052370;28;20044;-71
2023/01/06 09:51:47;;;;;;;22.98;18.38;;;14.30;87.50;;;;;;5054975;28;20033;-74
2023/01/06 09:54:35;;;;;;;25.30;19.67;;;14.30;88.00;;;;;;5073827;28;20052;-73
2023/01/06 09:57:12;;;;;;;26.05;19.15;;;14.50;88.10;;;;;;5055527;28;20036;-74
2023/01/06 09:59:51;;;;;;;23.75;18.35;;;14.50;87.80;;;;;;5073607;28;20047;-75
2023/01/06 10:02:49;;;;;;;23.50;17.40;;;14.50;87.50;;;;;;5073655;28;20134;-75
2023/01/06 10:05:32;;;;;;;25.90;17.65;;;14.60;86.90;;;;;;5055384;28;20033;-73
2023/01/06 10:08:16;;;;;;;29.25;18.75;;;14.60;87.20;;;;;;5073489;28;20044;-74
2023/01/06 10:10:47;;;;;;;;;;;14.50;87.30;;;;;;5074151;28;20032;-74
2023/01/06 10:13:36;;;;;;;24.00;17.77;;;14.60;87.20;;;;;;5073485;28;19912;-72
2023/01/06 10:16:24;;;;;;;25.00;17.20;;;14.60;87.80;;;;;;5073070;28;20081;-74
2023/01/06 10:18:53;;;;;;;20.73;15.73;;;14.60;86.60;;;;;;5062234;28;20044;-74
2023/01/06 10:21:42;;;;;;;22.85;16.38;;;14.50;86.30;;;;;;5072103;28;20060;-74
2023/01/06 10:24:26;;;;;;;22.63;16.63;;;14.50;86.80;;;;;;5054988;28;20606;-74
2023/01/06 10:27:00;;;;;;;23.75;17.33;;;14.50;86.60;;;;;;5073268;28;20028;-73
2023/01/06 10:29:33;;;;;;;25.67;17.70;;;14.60;86.70;;;;;;5073137;28;20502;-71
2023/01/06 10:32:01;;;;;;;24.20;17.20;;;14.70;86.80;;;;;;5055064;28;20063;-74
2023/01/06 10:34:27;;;;;;;23.40;18.13;;;14.70;86.80;;;;;;5054933;28;20132;-75
2023/01/06 10:37:16;;;;;;;27.55;20.13;;;14.70;86.70;;;;;;5072981;28;20033;-75
2023/01/06 10:39:45;;;;;;;26.63;18.33;;;14.70;86.40;;;;;;5072039;28;20036;-74
2023/01/06 10:45:11;;;;;;;28.52;17.20;;;14.80;86.40;;;;;;5069208;28;20131;-77
2023/01/06 10:47:39;;;;;;;24.40;17.50;;;14.80;86.60;;;;;;5060078;28;20072;-73
2023/01/06 10:50:05;;;;;;;25.15;16.73;;;14.80;86.40;;;;;;5066070;28;20090;-77
2023/01/06 10:52:32;;;;;;;24.38;18.45;;;14.70;86.30;;;;;;5054851;28;20090;-73
2023/01/06 10:55:03;;;;;;;24.25;18.13;;;14.80;86.50;;;;;;5050407;28;20475;-77
2023/01/06 10:57:35;;;;;;;23.10;18.98;;;14.80;86.50;;;;;;5058627;28;20040;-76
2023/01/06 11:00:15;;;;;;;26.90;19.67;;;14.80;86.50;;;;;;5034773;28;20091;-76
2023/01/06 11:02:49;;;;;;;23.15;17.42;;;14.80;86.40;;;;;;5051246;28;20033;-73
2023/01/06 11:05:27;;;;;;;24.95;18.15;;;14.80;86.30;;;;;;5049814;28;20471;-72
2023/01/06 11:08:03;;;;;;;24.27;19.05;;;14.80;86.40;;;;;;5060723;28;20098;-74
2023/01/06 11:10:53;;;;;;;24.38;18.25;;;14.80;86.70;;;;;;5062758;28;20081;-73
2023/01/06 11:13:40;;;;;;;24.88;18.63;;;14.70;86.80;;;;;;5056643;28;20071;-74
2023/01/06 11:16:17;;;;;;;28.73;19.15;;;14.70;86.90;;;;;;5040537;28;20117;-76
2023/01/06 11:18:49;;;;;;;28.90;19.50;;;14.70;87.00;;;;;;5061716;28;20508;-75
2023/01/06 11:21:15;;;;;;;24.80;18.30;;;14.80;86.90;;;;;;5042945;28;20078;-72
2023/01/06 11:23:43;;;;;;;25.77;19.25;;;14.80;87.50;;;;;;5056974;28;20036;-74
2023/01/06 11:26:11;;;;;;;36.28;19.52;;;14.80;86.80;;;;;;5034408;28;20076;-74
2023/01/06 11:28:42;;;;;;;26.35;18.60;;;14.80;86.60;;;;;;5034110;28;20504;-74
2023/01/06 11:31:13;;;;;;;25.92;19.02;;;14.80;86.60;;;;;;5051870;28;20120;-74
2023/01/06 11:34:00;;;;;;;24.35;18.55;;;14.90;87.00;;;;;;5052195;28;20048;-72
2023/01/06 11:36:32;;;;;;;25.60;18.63;;;14.90;86.60;;;;;;5034304;28;20082;-73
2023/01/06 11:39:00;;;;;;;24.42;19.27;;;15.10;87.00;;;;;;5034446;28;20136;-70
2023/01/06 11:41:35;;;;;;;25.98;18.70;;;15.10;86.70;;;;;;5051991;28;20395;-70
2023/01/06 11:44:17;;;;;;;25.35;17.90;;;15.20;86.60;;;;;;5034120;28;20519;-70
2023/01/06 11:46:57;;;;;;;24.42;17.23;;;15.30;86.30;;;;;;5034022;28;20120;-73
2023/01/06 11:49:46;;;;;;;26.63;17.67;;;15.40;86.50;;;;;;5038758;28;20476;-75
2023/01/06 11:52:30;;;;;;;23.52;17.15;;;15.50;86.20;;;;;;5051814;28;20037;-75
2023/01/06 11:55:18;;;;;;;23.15;16.85;;;15.50;86.20;;;;;;5034267;28;20371;-72
2023/01/06 11:57:56;;;;;;;22.67;16.50;;;15.50;86.10;;;;;;5033968;28;20025;-73
2023/01/06 12:00:41;;;;;;;23.05;16.63;;;15.50;85.90;;;;;;5033590;28;20044;-74
2023/01/06 12:03:19;;;;;;;20.02;14.75;;;15.50;85.90;;;;;;5057906;28;20046;-74
2023/01/06 12:05:53;;;;;;;18.38;14.30;;;15.60;85.60;;;;;;5070684;28;20396;-75
2023/01/06 12:08:40;;;;;;;24.50;15.00;;;15.70;85.30;;;;;;5053819;28;20048;-75
2023/01/06 12:11:14;;;;;;;22.30;15.65;;;15.70;85.30;;;;;;5072042;28;20360;-78
2023/01/06 12:13:40;;;;;;;19.83;14.48;;;15.70;84.50;;;;;;5071567;28;20040;-74
2023/01/06 12:16:22;;;;;;;21.60;14.50;;;15.70;84.20;;;;;;5072032;28;20051;-75
2023/01/06 12:18:49;;;;;;;22.08;14.23;;;15.70;84.40;;;;;;5054102;28;20036;-73
2023/01/06 12:21:24;;;;;;;20.45;13.75;;;15.70;84.20;;;;;;5053527;28;20407;-69
2023/01/06 12:23:52;;;;;;;18.88;13.82;;;15.80;84.10;;;;;;5053757;28;20056;-70
2023/01/06 12:26:22;;;;;;;18.95;13.88;;;15.90;84.20;;;;;;5071632;28;20021;-72
2023/01/06 12:28:50;;;;;;;17.48;12.57;;;16.00;84.20;;;;;;5087532;28;20123;-70
2023/01/06 12:31:54;;;;;;;21.10;13.63;;;16.00;84.10;;;;;;5091660;28;20070;-69
2023/01/06 12:34:30;;;;;;;23.20;13.40;;;16.10;84.90;;;;;;5091680;28;20119;-66
2023/01/06 12:37:18;;;;;;;19.38;13.45;;;16.10;84.00;;;;;;5050612;28;20543;-69
2023/01/06 12:40:09;;;;;;;19.00;13.57;;;16.20;84.60;;;;;;5071241;28;20058;-66
2023/01/06 12:42:51;;;;;;;18.88;13.52;;;16.20;84.70;;;;;;5071086;28;20028;-68
2023/01/06 12:45:45;;;;;;;18.00;12.73;;;16.30;84.70;;;;;;5071057;28;20044;-65
2023/01/06 12:48:30;;;;;;;20.80;13.13;;;16.30;84.50;;;;;;5071837;28;20027;-67
2023/01/06 12:51:04;;;;;;;17.38;12.15;;;16.30;84.60;;;;;;5071339;28;20112;-68
2023/01/06 12:53:39;;;;;;;20.65;13.20;;;16.40;84.10;;;;;;5051140;28;20546;-70
2023/01/06 12:56:48;;;;;;;19.65;13.50;;;16.40;84.40;;;;;;5053189;28;20037;-70
2023/01/06 12:59:37;;;;;;;17.88;12.70;;;16.50;84.80;;;;;;5038300;28;20100;-70
2023/01/06 13:02:24;;;;;;;19.40;13.48;;;16.50;84.90;;;;;;5054762;28;20123;-68
2023/01/06 13:05:05;;;;;;;20.80;14.25;;;16.60;84.80;;;;;;5056765;28;20040;-69
2023/01/06 13:07:51;;;;;;;19.55;14.20;;;16.50;85.40;;;;;;5073362;28;20032;-68
2023/01/06 13:10:32;;;;;;;23.60;13.85;;;16.60;84.70;;;;;;5074652;28;20032;-69
2023/01/06 13:13:40;;;;;;;21.48;13.60;;;16.60;84.50;;;;;;5056605;28;20037;-67
2023/01/06 13:16:37;;;;;;;26.35;14.85;;;16.60;84.40;;;;;;5056523;28;20033;-68
2023/01/06 13:19:25;;;;;;;20.42;13.93;;;16.50;84.20;;;;;;4987907;28;20492;-68
2023/01/06 13:21:54;;;;;;;19.98;13.48;;;16.50;84.40;;;;;;5065158;28;20114;-68
2023/01/06 13:24:28;;;;;;;20.10;13.50;;;16.60;83.70;;;;;;5061201;28;20032;-68
2023/01/06 13:27:26;;;;;;;18.67;13.77;;;16.60;84.10;;;;;;5069699;28;20059;-67
2023/01/06 13:29:52;;;;;;;16.40;13.23;;;16.60;84.50;;;;;;5071309;28;20042;-67
2023/01/06 13:33:00;;;;;;;26.20;13.30;;;16.60;83.90;;;;;;5041078;28;20112;-67
2023/01/06 13:35:44;;;;;;;20.15;14.32;;;16.60;84.60;;;;;;5041905;28;20037;-67
2023/01/06 13:38:28;;;;;;;;;;;16.60;83.90;;;;;;5074817;28;20051;-67
2023/01/06 13:41:00;;;;;;;20.05;14.38;;;16.60;84.10;;;;;;5073606;28;19912;-66
2023/01/06 13:43:32;;;;;;;15.70;9.82;;;16.50;84.20;;;;;;5073636;28;20048;-69
2023/01/06 13:46:03;;;;;;;20.48;14.05;;;16.50;83.90;;;;;;5055780;28;20025;-67
2023/01/06 13:48:39;;;;;;;18.10;13.90;;;16.50;83.90;;;;;;5052404;28;20041;-71
2023/01/06 13:51:09;;;;;;;21.23;14.15;;;16.50;83.80;;;;;;5044652;28;20096;-68
2023/01/06 13:53:40;;;;;;;22.33;12.95;;;16.40;83.70;;;;;;5073325;28;20032;-69
2023/01/06 13:56:12;;;;;;;19.45;14.05;;;16.40;83.90;;;;;;5073688;28;20371;-71
2023/01/06 13:58:42;;;;;;;20.75;13.43;;;16.30;83.80;;;;;;5072100;28;20059;-66
2023/01/06 14:01:09;;;;;;;17.90;12.98;;;16.30;83.80;;;;;;5073425;28;20033;-68
2023/01/06 14:03:37;;;;;;;21.92;13.35;;;16.30;84.00;;;;;;5073150;28;20185;-66
2023/01/06 14:06:03;;;;;;;19.00;14.27;;;16.30;84.10;;;;;;5055035;28;20040;-70